createdAt,value
2019-04-21T00:00:18.632Z,54.27
2019-04-21T00:01:18.262Z,53.89
2019-04-21T00:02:24.167Z,53.61
2019-04-21T00:03:26.714Z,53.61
2019-04-21T00:04:30.037Z,53.99
2019-04-21T00:05:30.715Z,53.80
2019-04-21T00:06:35.340Z,54.75
2019-04-21T00:07:37.330Z,54.27
2019-04-21T00:08:39.539Z,54.75
2019-04-21T00:09:42.402Z,54.66
2019-04-21T00:10:44.548Z,54.66
2019-04-21T00:11:35.101Z,54.85
2019-04-21T00:12:34.437Z,54.47
2019-04-21T00:13:33.158Z,54.66
2019-04-21T00:14:27.533Z,55.32
2019-04-21T00:15:29.122Z,55.80
2019-04-21T00:16:25.630Z,55.90
2019-04-21T00:17:20.844Z,55.99
2019-04-21T00:18:17.333Z,55.39
2019-04-21T00:19:21.758Z,56.05
2019-04-21T00:20:26.071Z,55.87
2019-04-21T00:21:26.622Z,55.61
2019-04-21T00:22:33.145Z,55.13
2019-04-21T00:23:36.186Z,54.85
2019-04-21T00:24:30.483Z,54.94
2019-04-21T00:25:32.155Z,55.04
2019-04-21T00:26:33.556Z,55.13
2019-04-21T00:27:33.378Z,54.75
2019-04-21T00:28:47.262Z,55.04
2019-04-21T00:29:38.314Z,54.27
2019-04-21T00:30:39.775Z,54.66
2019-04-21T00:31:36.674Z,54.37
2019-04-21T00:32:28.121Z,54.56
2019-04-21T00:33:23.231Z,54.75
2019-04-21T00:34:17.502Z,54.56
2019-04-21T00:35:21.060Z,54.75
2019-04-21T00:36:22.664Z,54.75
2019-04-21T00:37:26.717Z,54.47
2019-04-21T00:38:40.176Z,54.47
2019-04-21T00:39:43.832Z,54.75
2019-04-21T00:40:36.547Z,55.04
2019-04-21T00:41:37.671Z,54.27
2019-04-21T00:42:37.415Z,54.47
2019-04-21T00:43:35.371Z,54.37
2019-04-21T00:44:26.860Z,54.27
2019-04-21T00:45:31.388Z,54.94
2019-04-21T00:46:32.334Z,54.94
2019-04-21T00:47:34.100Z,54.94
2019-04-21T00:48:37.861Z,54.85
2019-04-21T00:49:31.135Z,54.66
2019-04-21T00:50:40.457Z,55.42
2019-04-21T00:51:49.358Z,55.42
2019-04-21T00:53:43.536Z,55.49
2019-04-21T00:54:41.528Z,55.77
2019-04-21T00:55:38.570Z,56.53
2019-04-21T00:56:46.677Z,56.05
2019-04-21T00:57:38.792Z,55.77
2019-04-21T00:58:39.573Z,55.87
2019-04-21T00:59:40.310Z,56.72
2019-04-21T01:00:32.487Z,56.24
2019-04-21T01:01:39.410Z,56.15
2019-04-21T01:02:40.244Z,56.53
2019-04-21T01:03:38.448Z,57.01
2019-04-21T01:04:39.936Z,56.92
2019-04-21T01:05:43.522Z,56.92
2019-04-21T01:06:36.923Z,56.63
2019-04-21T01:07:37.203Z,57.01
2019-04-21T01:08:39.972Z,56.53
2019-04-21T01:09:34.354Z,57.29
2019-04-21T01:10:28.662Z,57.29
2019-04-21T01:11:37.686Z,57.39
2019-04-21T01:12:37.364Z,57.96
2019-04-21T01:13:41.673Z,58.06
2019-04-21T01:14:46.942Z,57.93
2019-04-21T01:16:39.317Z,58.03
2019-04-21T01:17:35.787Z,58.22
2019-04-21T01:18:41.005Z,58.31
2019-04-21T01:19:33.426Z,58.69
2019-04-21T01:20:17.485Z,58.59
2019-04-21T01:21:15.004Z,58.79
2019-04-21T01:22:14.975Z,58.59
2019-04-21T01:23:14.921Z,58.31
2019-04-21T01:24:21.730Z,57.77
2019-04-21T01:25:22.699Z,57.48
2019-04-21T01:26:29.620Z,58.25
2019-04-21T01:27:25.201Z,58.53
2019-04-21T01:28:31.582Z,57.58
2019-04-21T01:29:37.441Z,57.20
2019-04-21T01:30:39.027Z,57.58
2019-04-21T01:31:30.526Z,57.20
2019-04-21T01:32:37.562Z,57.39
2019-04-21T01:33:38.508Z,57.01
2019-04-21T01:34:37.702Z,57.20
2019-04-21T01:35:34.974Z,57.39
2019-04-21T01:36:34.765Z,57.20
2019-04-21T01:37:43.795Z,57.29
2019-04-21T01:38:42.841Z,57.20
2019-04-21T01:39:42.789Z,56.72
2019-04-21T01:40:34.861Z,56.63
2019-04-21T01:41:38.926Z,56.82
2019-04-21T01:42:31.492Z,57.20
2019-04-21T01:43:33.377Z,57.87
2019-04-21T01:44:43.157Z,58.03
2019-04-21T01:45:35.623Z,58.59
2019-04-21T01:46:30.939Z,58.79
2019-04-21T01:47:31.495Z,58.98
2019-04-21T01:48:31.838Z,59.36
2019-04-21T01:49:28.198Z,59.36
2019-04-21T01:50:39.311Z,58.79
2019-04-21T01:51:27.848Z,59.07
2019-04-21T01:53:38.527Z,59.17
2019-04-21T01:54:35.103Z,60.02
2019-04-21T01:55:35.708Z,59.36
2019-04-21T01:56:35.694Z,59.17
2019-04-21T01:57:29.658Z,59.55
2019-04-21T01:58:27.030Z,60.12
2019-04-21T01:59:26.995Z,60.02
2019-04-21T02:00:32.804Z,58.88
2019-04-21T02:01:33.365Z,58.12
2019-04-21T02:02:36.118Z,58.22
2019-04-21T02:03:52.939Z,58.69
2019-04-21T02:04:41.534Z,58.59
2019-04-21T02:05:37.684Z,59.07
2019-04-21T02:06:37.789Z,59.36
2019-04-21T02:07:32.682Z,59.83
2019-04-21T02:08:31.348Z,60.02
2019-04-21T02:09:32.443Z,60.12
2019-04-21T02:10:40.435Z,60.66
2019-04-21T02:11:37.336Z,60.38
2019-04-21T02:12:31.829Z,60.66
2019-04-21T02:13:35.203Z,60.75
2019-04-21T02:14:41.231Z,60.85
2019-04-21T02:15:42.264Z,60.85
2019-04-21T02:16:35.993Z,61.61
2019-04-21T02:17:34.309Z,61.71
2019-04-21T02:18:35.250Z,62.18
2019-04-21T02:19:28.729Z,62.37
2019-04-21T02:20:25.872Z,62.18
2019-04-21T02:21:31.796Z,62.46
2019-04-21T02:22:56.108Z,62.27
2019-04-21T02:23:38.507Z,62.15
2019-04-21T02:24:47.949Z,62.65
2019-04-21T02:25:50.639Z,62.43
2019-04-21T02:26:37.622Z,62.62
2019-04-21T02:27:36.434Z,62.62
2019-04-21T02:28:44.058Z,63.48
2019-04-21T02:29:34.830Z,63.20
2019-04-21T02:30:47.143Z,63.29
2019-04-21T02:32:48.025Z,63.39
2019-04-21T02:33:54.306Z,63.10
2019-04-21T02:35:03.167Z,63.23
2019-04-21T02:37:00.465Z,63.10
2019-04-21T02:38:50.295Z,63.39
2019-04-21T02:39:49.778Z,63.29
2019-04-21T02:41:03.185Z,63.20
2019-04-21T02:41:51.558Z,63.20
2019-04-21T02:42:46.486Z,63.01
2019-04-21T02:43:48.221Z,62.62
2019-04-21T02:48:46.945Z,62.34
2019-04-21T02:51:45.227Z,62.75
2019-04-21T02:55:17.976Z,62.08
2019-04-21T02:56:46.100Z,61.71
2019-04-21T02:57:51.929Z,61.80
2019-04-21T02:58:53.107Z,61.42
2019-04-21T03:02:40.710Z,61.52
2019-04-21T03:03:37.794Z,61.71
2019-04-21T03:05:45.417Z,60.57
2019-04-21T03:06:33.080Z,60.85
2019-04-21T03:08:26.217Z,60.78
2019-04-21T03:09:29.761Z,60.94
2019-04-21T03:10:26.244Z,60.66
2019-04-21T03:11:17.054Z,61.23
2019-04-21T03:12:22.640Z,61.23
2019-04-21T03:14:36.807Z,61.61
2019-04-21T03:15:23.515Z,61.71
2019-04-21T03:16:23.318Z,62.08
2019-04-21T03:17:35.863Z,62.18
2019-04-21T03:18:24.361Z,61.80
2019-04-21T03:19:33.187Z,62.37
2019-04-21T03:20:23.693Z,61.99
2019-04-21T03:21:26.578Z,62.08
2019-04-21T03:22:24.355Z,62.18
2019-04-21T03:23:27.610Z,61.99
2019-04-21T03:24:18.394Z,62.18
2019-04-21T03:25:38.141Z,62.08
2019-04-21T03:27:28.854Z,61.80
2019-04-21T03:28:28.275Z,61.99
2019-04-21T03:29:36.717Z,62.08
2019-04-21T03:32:50.599Z,62.27
2019-04-21T03:34:38.348Z,61.90
2019-04-21T03:35:57.884Z,61.80
2019-04-21T03:36:41.038Z,61.99
2019-04-21T03:37:25.150Z,61.99
2019-04-21T03:38:28.880Z,62.27
2019-04-21T03:39:18.285Z,62.34
2019-04-21T03:41:22.197Z,62.43
2019-04-21T03:43:21.354Z,62.37
2019-04-21T03:44:26.745Z,62.37
2019-04-21T03:45:32.966Z,61.80
2019-04-21T03:46:23.221Z,62.27
2019-04-21T03:47:27.913Z,62.08
2019-04-21T03:48:36.459Z,62.08
2019-04-21T03:49:27.843Z,62.18
2019-04-21T03:51:20.214Z,61.42
2019-04-21T03:52:49.667Z,61.42
2019-04-21T03:54:15.875Z,60.85
2019-04-21T03:56:27.770Z,60.66
2019-04-21T03:57:52.858Z,60.85
2019-04-21T03:59:19.735Z,61.23
2019-04-21T04:00:35.276Z,61.13
2019-04-21T04:01:16.330Z,60.75
2019-04-21T04:02:23.932Z,61.04
2019-04-21T04:05:23.393Z,61.52
2019-04-21T04:06:20.598Z,61.61
2019-04-21T04:07:34.059Z,61.90
2019-04-21T04:08:37.250Z,61.90
2019-04-21T04:09:26.388Z,61.99
2019-04-21T04:11:30.053Z,62.27
2019-04-21T04:12:28.643Z,62.27
2019-04-21T04:13:27.087Z,62.24
2019-04-21T04:14:22.824Z,62.43
2019-04-21T04:15:31.519Z,62.72
2019-04-21T04:16:20.323Z,62.53
2019-04-21T04:17:17.044Z,62.53
2019-04-21T04:18:31.942Z,63.39
2019-04-21T04:19:18.030Z,63.39
2019-04-21T04:21:28.361Z,63.20
2019-04-21T04:22:24.957Z,63.39
2019-04-21T04:23:20.634Z,63.20
2019-04-21T04:25:19.167Z,63.67
2019-04-21T04:26:22.646Z,63.86
2019-04-21T04:27:35.259Z,63.76
2019-04-21T04:28:25.717Z,63.67
2019-04-21T04:29:22.462Z,63.76
2019-04-21T04:30:21.679Z,63.76
2019-04-21T04:32:23.679Z,63.76
2019-04-21T04:33:32.257Z,63.86
2019-04-21T04:34:22.591Z,64.14
2019-04-21T04:35:22.083Z,64.34
2019-04-21T04:38:24.153Z,64.72
2019-04-21T04:40:21.444Z,65.38
2019-04-21T04:41:28.905Z,64.62
2019-04-21T04:44:30.314Z,64.72
2019-04-21T04:45:26.623Z,64.53
2019-04-21T04:46:20.331Z,64.34
2019-04-21T04:47:16.664Z,63.76
2019-04-21T04:48:25.993Z,63.48
2019-04-21T04:49:30.079Z,63.86
2019-04-21T04:50:20.130Z,63.79
2019-04-21T04:51:22.942Z,64.08
2019-04-21T04:52:31.309Z,63.89
2019-04-21T04:53:20.277Z,63.60
2019-04-21T04:54:32.437Z,63.23
2019-04-21T04:55:19.191Z,63.42
2019-04-21T04:56:18.329Z,63.51
2019-04-21T04:57:29.077Z,63.13
2019-04-21T04:58:19.165Z,63.32
2019-04-21T04:59:32.548Z,63.32
2019-04-21T05:00:28.119Z,62.75
2019-04-21T05:03:31.776Z,62.85
2019-04-21T05:04:23.739Z,62.75
2019-04-21T05:06:34.940Z,63.17
2019-04-21T05:07:25.136Z,62.49
2019-04-21T05:09:31.943Z,62.88
2019-04-21T05:10:22.227Z,62.69
2019-04-21T05:11:37.729Z,62.49
2019-04-21T05:12:08.943Z,63.07
2019-04-21T05:13:18.196Z,62.12
2019-04-21T05:14:16.775Z,61.74
2019-04-21T05:15:11.483Z,60.63
2019-04-21T05:16:32.107Z,60.63
2019-04-21T05:17:21.779Z,59.48
2019-04-21T05:18:18.566Z,59.23
2019-04-21T05:20:15.807Z,58.30
2019-04-21T05:21:24.457Z,58.11
2019-04-21T05:22:16.855Z,57.26
2019-04-21T05:23:16.152Z,56.90
2019-04-21T05:24:07.522Z,56.24
2019-04-21T05:25:03.515Z,55.50
2019-04-21T05:26:00.022Z,55.05
2019-04-21T05:27:03.121Z,53.91
2019-04-21T05:28:05.000Z,53.84
2019-04-21T05:29:01.975Z,52.31
2019-04-21T05:30:07.164Z,51.93
2019-04-21T05:31:14.092Z,50.81
2019-04-21T05:33:09.710Z,50.62
2019-04-21T05:34:09.503Z,50.55
2019-04-21T05:35:07.992Z,49.98
2019-04-21T05:36:09.403Z,49.78
2019-04-21T05:37:10.714Z,50.07
2019-04-21T05:38:06.209Z,49.78
2019-04-21T05:40:04.399Z,48.85
2019-04-21T05:41:02.466Z,48.39
2019-04-21T05:41:55.213Z,47.53
2019-04-21T05:43:14.100Z,46.31
2019-04-21T05:44:12.819Z,46.44
2019-04-21T05:45:20.490Z,45.79
2019-04-21T05:46:15.621Z,44.93
2019-04-21T05:47:20.865Z,44.47
2019-04-21T05:48:18.493Z,42.96
2019-04-21T05:49:10.571Z,42.29
2019-04-21T05:50:06.541Z,40.96
2019-04-21T05:51:08.006Z,40.96
2019-04-21T05:52:06.642Z,40.67
2019-04-21T05:53:08.829Z,39.91
2019-04-21T05:54:15.175Z,39.91
2019-04-21T05:55:09.424Z,39.93
2019-04-21T05:56:13.692Z,40.02
2019-04-21T05:57:08.298Z,38.89
2019-04-21T05:58:08.568Z,38.81
2019-04-21T05:59:07.915Z,38.91
2019-04-21T06:00:12.451Z,38.35
2019-04-21T06:01:14.847Z,37.68
2019-04-21T06:02:18.468Z,36.91
2019-04-21T06:03:15.154Z,36.62
2019-04-21T06:04:15.623Z,37.57
2019-04-21T06:05:30.162Z,37.30
2019-04-21T06:06:18.042Z,36.83
2019-04-21T06:07:13.313Z,36.64
2019-04-21T06:08:09.782Z,36.08
2019-04-21T06:09:11.456Z,35.62
2019-04-21T06:10:08.481Z,34.77
2019-04-21T06:11:14.818Z,34.98
2019-04-21T06:12:10.791Z,33.61
2019-04-21T06:13:17.049Z,33.58
2019-04-21T06:14:08.096Z,34.35
2019-04-21T06:15:08.356Z,33.98
2019-04-21T06:16:08.840Z,34.27
2019-04-21T06:17:08.115Z,33.92
2019-04-21T06:18:14.544Z,32.57
2019-04-21T06:19:11.474Z,32.20
2019-04-21T06:20:07.839Z,32.03
2019-04-21T06:21:13.139Z,31.46
2019-04-21T06:22:11.991Z,31.75
2019-04-21T06:23:11.262Z,30.61
2019-04-21T06:24:10.158Z,29.46
2019-04-21T06:25:31.137Z,26.55
2019-04-21T06:27:27.848Z,27.29
2019-04-21T06:28:13.748Z,27.87
2019-04-21T06:29:09.123Z,28.18
2019-04-21T06:30:03.522Z,26.64
2019-04-21T06:32:59.452Z,25.55
2019-04-21T06:34:08.107Z,25.55
2019-04-21T06:35:23.754Z,25.27
2019-04-21T06:36:29.227Z,25.08
2019-04-21T06:37:32.203Z,25.66
2019-04-21T06:38:13.232Z,26.44
2019-04-21T06:41:13.457Z,26.42
2019-04-21T06:42:09.065Z,26.81
2019-04-21T06:43:20.983Z,25.96
2019-04-21T06:44:12.852Z,23.45
2019-04-21T06:45:12.911Z,23.93
2019-04-21T06:46:08.898Z,23.93
2019-04-21T06:47:17.938Z,23.55
2019-04-21T06:48:12.198Z,23.45
2019-04-21T06:49:21.781Z,23.65
2019-04-21T06:50:09.651Z,23.46
2019-04-21T06:51:09.358Z,23.85
2019-04-21T06:52:20.132Z,23.65
2019-04-21T06:53:04.039Z,23.38
2019-04-21T06:54:09.623Z,22.02
2019-04-21T06:55:15.329Z,22.89
2019-04-21T06:56:16.482Z,22.89
2019-04-21T06:57:10.097Z,22.91
2019-04-21T06:58:11.929Z,23.49
2019-04-21T06:59:05.957Z,22.91
2019-04-21T07:00:07.655Z,22.33
2019-04-21T07:01:09.132Z,22.30
2019-04-21T07:02:31.860Z,21.83
2019-04-21T07:03:15.592Z,22.42
2019-04-21T07:04:20.932Z,22.33
2019-04-21T07:05:07.743Z,22.43
2019-04-21T07:06:18.377Z,22.24
2019-04-21T07:07:05.832Z,23.11
2019-04-21T07:08:23.268Z,22.14
2019-04-21T07:09:15.840Z,21.08
2019-04-21T07:10:10.761Z,21.66
2019-04-21T07:11:13.268Z,21.75
2019-04-21T07:12:06.361Z,21.08
2019-04-21T07:13:03.942Z,21.75
2019-04-21T07:15:17.023Z,21.37
2019-04-21T07:16:17.595Z,20.89
2019-04-21T07:17:16.025Z,21.38
2019-04-21T07:18:12.621Z,21.69
2019-04-21T07:19:13.186Z,20.43
2019-04-21T07:21:06.454Z,19.37
2019-04-21T07:22:11.132Z,19.73
2019-04-21T07:23:09.321Z,20.77
2019-04-21T07:24:14.744Z,21.83
2019-04-21T07:25:09.142Z,22.20
2019-04-21T07:26:12.301Z,22.02
2019-04-21T07:27:08.885Z,22.89
2019-04-21T07:28:02.972Z,23.00
2019-04-21T07:29:11.623Z,23.11
2019-04-21T07:30:25.426Z,22.33
2019-04-21T07:31:11.128Z,22.70
2019-04-21T07:32:11.749Z,24.08
2019-04-21T07:33:33.651Z,22.05
2019-04-21T07:35:08.323Z,22.13
2019-04-21T07:36:11.464Z,22.05
2019-04-21T07:37:07.737Z,22.53
2019-04-21T07:38:05.539Z,22.03
2019-04-21T07:39:06.239Z,22.30
2019-04-21T07:40:05.197Z,22.89
2019-04-21T07:40:59.456Z,23.66
2019-04-21T07:42:06.885Z,23.19
2019-04-21T07:43:02.584Z,23.01
2019-04-21T07:44:00.159Z,23.80
2019-04-21T07:44:59.279Z,21.85
2019-04-21T07:45:59.855Z,21.83
2019-04-21T07:46:58.530Z,22.67
2019-04-21T07:48:09.604Z,22.85
2019-04-21T07:49:11.109Z,23.72
2019-04-21T07:50:07.316Z,23.65
2019-04-21T07:51:11.134Z,22.86
2019-04-21T07:52:11.542Z,23.16
2019-04-21T07:54:11.783Z,21.81
2019-04-21T07:55:49.623Z,23.35
2019-04-21T07:57:00.865Z,23.65
2019-04-21T07:58:12.459Z,22.98
2019-04-21T07:59:02.120Z,22.69
2019-04-21T08:00:22.173Z,22.77
2019-04-21T08:01:11.908Z,22.40
2019-04-21T08:02:09.051Z,22.89
2019-04-21T08:03:08.105Z,23.10
2019-04-21T08:04:16.560Z,23.10
2019-04-21T08:06:02.217Z,22.77
2019-04-21T08:07:05.206Z,22.88
2019-04-21T08:07:59.509Z,23.74
2019-04-21T08:09:07.433Z,23.75
2019-04-21T08:10:02.889Z,23.68
2019-04-21T08:11:07.390Z,22.83
2019-04-21T08:11:58.913Z,21.58
2019-04-21T08:13:09.802Z,19.65
2019-04-21T08:14:08.392Z,19.66
2019-04-21T08:15:13.626Z,19.85
2019-04-21T08:16:17.461Z,19.06
2019-04-21T08:17:02.826Z,19.73
2019-04-21T08:18:09.270Z,20.42
2019-04-21T08:19:09.624Z,19.46
2019-04-21T08:20:04.349Z,19.76
2019-04-21T08:21:05.775Z,18.51
2019-04-21T08:22:11.010Z,19.28
2019-04-21T08:23:04.686Z,19.37
2019-04-21T08:24:06.186Z,18.88
2019-04-21T08:25:02.889Z,18.66
2019-04-21T08:26:07.695Z,20.09
2019-04-21T08:27:10.860Z,20.86
2019-04-21T08:28:05.973Z,21.54
2019-04-21T08:29:12.705Z,21.26
2019-04-21T08:30:04.464Z,21.14
2019-04-21T08:31:09.932Z,21.25
2019-04-21T08:32:11.923Z,21.36
2019-04-21T08:34:09.651Z,20.89
2019-04-21T08:35:37.925Z,20.01
2019-04-21T08:37:04.043Z,20.20
2019-04-21T08:39:07.249Z,21.07
2019-04-21T08:41:10.579Z,20.31
2019-04-21T08:42:06.217Z,20.21
2019-04-21T08:43:01.174Z,20.21
2019-04-21T08:44:02.238Z,20.67
2019-04-21T08:45:07.378Z,20.86
2019-04-21T08:46:05.431Z,21.26
2019-04-21T08:47:07.430Z,21.06
2019-04-21T08:48:05.486Z,21.55
2019-04-21T08:49:08.117Z,20.31
2019-04-21T08:50:00.773Z,20.49
2019-04-21T08:51:14.017Z,21.27
2019-04-21T08:52:15.275Z,21.17
2019-04-21T08:53:07.980Z,21.56
2019-04-21T08:54:09.528Z,21.07
2019-04-21T08:55:03.625Z,21.07
2019-04-21T08:56:10.302Z,21.45
2019-04-21T08:57:07.808Z,22.43
2019-04-21T08:59:14.635Z,22.78
2019-04-21T09:00:05.081Z,23.16
2019-04-21T09:01:14.143Z,23.93
2019-04-21T09:02:09.176Z,23.27
2019-04-21T09:03:10.564Z,22.30
2019-04-21T09:04:06.069Z,23.10
2019-04-21T09:05:05.083Z,21.85
2019-04-21T09:06:09.208Z,22.16
2019-04-21T09:08:04.039Z,20.43
2019-04-21T09:09:03.607Z,19.67
2019-04-21T09:10:03.242Z,20.06
2019-04-21T09:10:59.379Z,19.46
2019-04-21T09:12:05.418Z,19.45
2019-04-21T09:13:05.032Z,20.31
2019-04-21T09:14:01.350Z,20.12
2019-04-21T09:15:00.818Z,20.21
2019-04-21T09:15:58.094Z,20.89
2019-04-21T09:17:00.480Z,20.18
2019-04-21T09:17:59.620Z,20.95
2019-04-21T09:18:58.075Z,20.76
2019-04-21T09:21:04.502Z,20.89
2019-04-21T09:22:02.317Z,20.03
2019-04-21T09:23:06.889Z,19.93
2019-04-21T09:24:04.586Z,19.83
2019-04-21T09:25:01.548Z,20.21
2019-04-21T09:26:05.986Z,20.62
2019-04-21T09:27:04.879Z,18.69
2019-04-21T09:28:02.382Z,18.71
2019-04-21T09:28:58.397Z,20.28
2019-04-21T09:29:52.374Z,18.35
2019-04-21T09:30:50.367Z,17.88
2019-04-21T09:31:47.744Z,16.13
2019-04-21T09:32:49.474Z,16.22
2019-04-21T09:33:50.140Z,16.30
2019-04-21T09:34:47.123Z,16.56
2019-04-21T09:35:49.185Z,17.13
2019-04-21T09:36:51.203Z,18.68
2019-04-21T09:37:53.415Z,19.18
2019-04-21T09:38:54.690Z,19.19
2019-04-21T09:39:50.013Z,18.04
2019-04-21T09:40:48.985Z,16.58
2019-04-21T09:41:45.006Z,17.36
2019-04-21T09:42:55.421Z,17.18
2019-04-21T09:43:48.988Z,17.29
2019-04-21T09:44:47.723Z,16.11
2019-04-21T09:45:45.353Z,17.07
2019-04-21T09:46:50.693Z,20.48
2019-04-21T09:47:56.689Z,17.49
2019-04-21T09:48:53.860Z,16.53
2019-04-21T09:49:45.262Z,16.34
2019-04-21T09:50:45.837Z,16.25
2019-04-21T09:51:45.910Z,15.77
2019-04-21T09:52:50.127Z,14.72
2019-04-21T09:53:54.577Z,15.01
2019-04-21T09:54:52.040Z,14.22
2019-04-21T09:55:51.348Z,14.51
2019-04-21T09:56:52.454Z,13.23
2019-04-21T09:57:51.567Z,13.79
2019-04-21T09:58:49.763Z,13.98
2019-04-21T09:59:55.762Z,15.05
2019-04-21T10:01:00.161Z,15.62
2019-04-21T10:01:55.941Z,15.52
2019-04-21T10:02:53.490Z,15.62
2019-04-21T10:03:48.657Z,15.42
2019-04-21T10:04:46.105Z,15.12
2019-04-21T10:05:45.240Z,15.79
2019-04-21T10:06:45.318Z,16.28
2019-04-21T10:07:44.857Z,16.19
2019-04-21T10:08:51.845Z,15.42
2019-04-21T10:09:45.641Z,14.54
2019-04-21T10:10:44.847Z,15.14
2019-04-21T10:11:45.961Z,14.65
2019-04-21T10:12:45.469Z,14.47
2019-04-21T10:13:44.834Z,13.59
2019-04-21T10:14:45.215Z,13.98
2019-04-21T10:15:45.977Z,13.79
2019-04-21T10:16:45.095Z,13.40
2019-04-21T10:17:44.806Z,13.69
2019-04-21T10:18:45.987Z,13.38
2019-04-21T10:19:44.807Z,14.45
2019-04-21T10:20:44.884Z,14.34
2019-04-21T10:21:44.796Z,15.12
2019-04-21T10:22:44.839Z,15.31
2019-04-21T10:23:45.680Z,14.53
2019-04-21T10:24:44.781Z,15.11
2019-04-21T10:25:44.778Z,15.41
2019-04-21T10:26:45.192Z,15.71
2019-04-21T10:27:45.264Z,14.35
2019-04-21T10:28:44.763Z,14.44
2019-04-21T10:29:45.369Z,15.29
2019-04-21T10:30:44.820Z,15.78
2019-04-21T10:31:45.019Z,15.98
2019-04-21T10:32:45.957Z,15.99
2019-04-21T10:33:44.737Z,15.20
2019-04-21T10:34:45.248Z,14.64
2019-04-21T10:35:44.727Z,13.96
2019-04-21T10:36:44.925Z,13.97
2019-04-21T10:37:53.900Z,13.48
2019-04-21T10:38:51.289Z,14.37
2019-04-21T10:39:45.382Z,14.07
2019-04-21T10:40:45.564Z,13.20
2019-04-21T10:41:45.779Z,13.88
2019-04-21T10:42:45.895Z,15.83
2019-04-21T10:43:45.209Z,15.04
2019-04-21T10:44:45.206Z,13.76
2019-04-21T10:45:44.687Z,13.96
2019-04-21T10:46:47.343Z,14.53
2019-04-21T10:47:45.025Z,16.26
2019-04-21T10:48:44.671Z,16.46
2019-04-21T10:49:44.888Z,15.20
2019-04-21T10:50:45.363Z,15.01
2019-04-21T10:51:44.659Z,14.34
2019-04-21T10:52:44.899Z,14.54
2019-04-21T10:53:46.603Z,14.54
2019-04-21T10:55:10.114Z,13.96
2019-04-21T10:56:01.507Z,15.32
2019-04-21T10:56:46.096Z,14.25
2019-04-21T10:57:44.628Z,13.78
2019-04-21T10:58:44.638Z,13.68
2019-04-21T10:59:47.878Z,13.38
2019-04-21T11:00:46.047Z,15.21
2019-04-21T11:01:45.279Z,15.01
2019-04-21T11:02:44.610Z,14.42
2019-04-21T11:03:44.805Z,14.61
2019-04-21T11:04:45.447Z,15.77
2019-04-21T11:05:45.021Z,15.68
2019-04-21T11:06:44.580Z,15.39
2019-04-21T11:07:55.325Z,15.12
2019-04-21T11:08:48.598Z,14.45
2019-04-21T11:09:44.573Z,14.07
2019-04-21T11:10:45.654Z,13.49
2019-04-21T11:11:46.821Z,12.72
2019-04-21T11:12:46.250Z,13.02
2019-04-21T11:13:44.548Z,13.12
2019-04-21T11:14:45.212Z,12.73
2019-04-21T11:15:45.414Z,12.14
2019-04-21T11:16:46.292Z,13.49
2019-04-21T11:17:45.560Z,14.38
2019-04-21T11:18:44.519Z,13.31
2019-04-21T11:19:44.516Z,13.30
2019-04-21T11:20:44.798Z,13.96
2019-04-21T11:21:44.943Z,14.73
2019-04-21T11:22:44.497Z,14.64
2019-04-21T11:23:45.802Z,14.44
2019-04-21T11:24:44.979Z,15.04
2019-04-21T11:25:44.486Z,13.87
2019-04-21T11:26:45.485Z,12.99
2019-04-21T11:27:44.890Z,14.04
2019-04-21T11:28:45.248Z,14.34
2019-04-21T11:29:44.472Z,13.96
2019-04-21T11:30:44.577Z,14.15
2019-04-21T11:31:45.243Z,13.86
2019-04-21T11:32:46.319Z,14.33
2019-04-21T11:33:45.271Z,15.59
2019-04-21T11:34:45.302Z,14.24
2019-04-21T11:35:45.500Z,14.54
2019-04-21T11:36:44.437Z,14.63
2019-04-21T11:37:44.426Z,15.31
2019-04-21T11:39:05.607Z,14.34
2019-04-21T11:39:54.584Z,15.03
2019-04-21T11:40:45.543Z,15.42
2019-04-21T11:41:45.636Z,14.35
2019-04-21T11:42:44.399Z,14.34
2019-04-21T11:43:45.352Z,14.34
2019-04-21T11:44:45.016Z,14.04
2019-04-21T11:45:44.455Z,14.44
2019-04-21T11:46:44.593Z,14.34
2019-04-21T11:47:44.372Z,14.34
2019-04-21T11:48:44.368Z,14.34
2019-04-21T11:49:45.274Z,14.44
2019-04-21T11:50:44.357Z,14.34
2019-04-21T11:51:44.995Z,14.84
2019-04-21T11:52:45.161Z,13.68
2019-04-21T11:53:44.340Z,13.10
2019-04-21T11:54:44.659Z,12.81
2019-04-21T11:55:47.005Z,13.68
2019-04-21T11:56:45.126Z,13.50
2019-04-21T11:57:46.904Z,13.29
2019-04-21T11:58:45.731Z,14.36
2019-04-21T11:59:44.310Z,14.75
2019-04-21T12:00:45.378Z,14.27
2019-04-21T12:01:45.581Z,14.28
2019-04-21T12:02:45.624Z,13.88
2019-04-21T12:03:45.450Z,14.47
2019-04-21T12:04:45.409Z,13.96
2019-04-21T12:05:45.485Z,14.06
2019-04-21T12:06:47.222Z,14.83
2019-04-21T12:07:45.145Z,14.64
2019-04-21T12:08:49.033Z,13.87
2019-04-21T12:09:44.257Z,13.58
2019-04-21T12:10:45.105Z,13.47
2019-04-21T12:11:45.336Z,14.35
2019-04-21T12:12:45.343Z,14.45
2019-04-21T12:13:44.234Z,14.07
2019-04-21T12:14:44.229Z,13.21
2019-04-21T12:15:45.141Z,13.32
2019-04-21T12:16:44.217Z,13.32
2019-04-21T12:17:44.211Z,12.93
2019-04-21T12:18:45.112Z,12.45
2019-04-21T12:19:44.762Z,12.45
2019-04-21T12:20:45.157Z,13.42
2019-04-21T12:21:54.586Z,13.12
2019-04-21T12:22:45.337Z,12.73
2019-04-21T12:23:44.787Z,12.82
2019-04-21T12:24:45.011Z,13.01
2019-04-21T12:25:45.308Z,13.42
2019-04-21T12:26:44.506Z,13.59
2019-04-21T12:27:44.159Z,15.16
2019-04-21T12:28:44.155Z,13.78
2019-04-21T12:29:44.151Z,14.27
2019-04-21T12:30:45.265Z,13.20
2019-04-21T12:31:45.417Z,13.29
2019-04-21T12:32:44.355Z,13.87
2019-04-21T12:33:44.149Z,15.02
2019-04-21T12:34:44.198Z,14.54
2019-04-21T12:35:44.118Z,14.34
2019-04-21T12:36:44.119Z,14.34
2019-04-21T12:37:44.821Z,13.77
2019-04-21T12:38:50.944Z,13.87
2019-04-21T12:39:45.034Z,13.29
2019-04-21T12:40:44.392Z,13.59
2019-04-21T12:41:44.642Z,13.40
2019-04-21T12:42:45.396Z,13.10
2019-04-21T12:43:44.527Z,13.57
2019-04-21T12:44:45.157Z,13.58
2019-04-21T12:45:44.176Z,13.29
2019-04-21T12:46:44.058Z,13.87
2019-04-21T12:47:44.108Z,14.75
2019-04-21T12:48:44.345Z,13.98
2019-04-21T12:49:44.041Z,13.30
2019-04-21T12:50:44.032Z,13.21
2019-04-21T12:51:44.146Z,14.09
2019-04-21T12:52:45.255Z,13.23
2019-04-21T12:53:44.015Z,12.84
2019-04-21T12:54:44.023Z,12.83
2019-04-21T12:55:46.028Z,13.01
2019-04-21T12:56:45.305Z,13.20
2019-04-21T12:57:44.001Z,13.68
2019-04-21T12:58:43.986Z,14.26
2019-04-21T12:59:44.678Z,14.34
2019-04-21T13:00:44.949Z,14.15
2019-04-21T13:01:45.184Z,14.25
2019-04-21T13:02:43.965Z,14.04
2019-04-21T13:03:43.961Z,14.34
2019-04-21T13:04:44.019Z,14.33
2019-04-21T13:05:45.309Z,14.15
2019-04-21T13:06:43.943Z,14.35
2019-04-21T13:07:43.943Z,14.06
2019-04-21T13:08:50.968Z,14.17
2019-04-21T13:09:44.321Z,13.89
2019-04-21T13:10:44.311Z,13.32
2019-04-21T13:11:43.912Z,11.87
2019-04-21T13:12:44.009Z,11.58
2019-04-21T13:13:43.952Z,11.96
2019-04-21T13:14:44.080Z,11.58
2019-04-21T13:15:45.250Z,11.97
2019-04-21T13:16:43.877Z,11.18
2019-04-21T13:17:45.619Z,11.68
2019-04-21T13:18:44.972Z,11.97
2019-04-21T13:19:45.244Z,11.47
2019-04-21T13:20:44.368Z,11.29
2019-04-21T13:21:43.849Z,11.98
2019-04-21T13:22:43.877Z,10.52
2019-04-21T13:23:45.087Z,9.94
2019-04-21T13:24:44.099Z,9.74
2019-04-21T13:25:43.827Z,9.54
2019-04-21T13:26:49.554Z,10.91
2019-04-21T13:27:45.169Z,11.29
2019-04-21T13:28:44.642Z,11.96
2019-04-21T13:29:44.074Z,10.78
2019-04-21T13:30:44.451Z,10.77
2019-04-21T13:31:44.556Z,11.83
2019-04-21T13:32:45.180Z,12.02
2019-04-21T13:33:44.029Z,11.05
2019-04-21T13:34:44.235Z,11.72
2019-04-21T13:35:44.792Z,11.72
2019-04-21T13:36:43.785Z,12.32
2019-04-21T13:37:43.754Z,11.54
2019-04-21T13:39:09.651Z,11.15
2019-04-21T13:40:09.692Z,11.15
2019-04-21T13:40:59.915Z,11.73
2019-04-21T13:41:57.007Z,10.96
2019-04-21T13:42:49.529Z,11.16
2019-04-21T13:43:45.305Z,10.10
2019-04-21T13:44:44.581Z,10.19
2019-04-21T13:45:43.701Z,11.27
2019-04-21T13:46:45.091Z,10.97
2019-04-21T13:47:43.680Z,11.65
2019-04-21T13:48:44.520Z,10.97
2019-04-21T13:49:43.672Z,11.25
2019-04-21T13:50:43.720Z,11.05
2019-04-21T13:51:43.980Z,11.55
2019-04-21T13:52:44.854Z,10.48
2019-04-21T13:53:43.969Z,11.07
2019-04-21T13:54:43.634Z,10.20
2019-04-21T13:55:44.660Z,10.50
2019-04-21T13:56:44.869Z,10.78
2019-04-21T13:57:44.327Z,10.30
2019-04-21T13:58:44.306Z,10.31